createdAt,value
2023-05-09T00:01:31.492Z,63.86
2023-05-09T00:03:59.670Z,63.97
2023-05-09T00:06:27.776Z,64.10
2023-05-09T00:08:55.790Z,64.00
2023-05-09T00:11:22.986Z,64.57
2023-05-09T00:13:50.662Z,64.81
2023-05-09T00:16:18.088Z,65.01
2023-05-09T00:18:44.710Z,65.28
2023-05-09T00:21:11.664Z,65.15
2023-05-09T00:23:38.748Z,65.22
2023-05-09T00:26:05.792Z,65.28
2023-05-09T00:28:32.583Z,65.79
2023-05-09T00:30:59.536Z,66.61
2023-05-09T00:33:26.912Z,66.52
2023-05-09T00:35:54.507Z,66.16
2023-05-09T00:38:23.718Z,66.49
2023-05-09T00:40:50.474Z,66.98
2023-05-09T00:43:17.444Z,66.99
2023-05-09T00:45:45.635Z,66.69
2023-05-09T00:48:12.363Z,66.70
2023-05-09T00:50:39.013Z,66.71
2023-05-09T00:53:05.741Z,66.80
2023-05-09T00:55:32.436Z,66.74
2023-05-09T00:57:59.184Z,66.99
2023-05-09T01:00:26.324Z,66.62
2023-05-09T01:02:55.280Z,66.57
2023-05-09T01:05:28.739Z,67.09
2023-05-09T01:08:07.591Z,67.30
2023-05-09T01:11:01.344Z,66.87
2023-05-09T01:13:49.017Z,66.94
2023-05-09T01:16:21.884Z,66.97
2023-05-09T01:19:10.509Z,66.65
2023-05-09T01:21:40.723Z,66.67
2023-05-09T01:24:22.739Z,66.70
2023-05-09T01:27:14.631Z,66.84
2023-05-09T01:29:48.432Z,66.55
2023-05-09T01:32:21.533Z,66.81
2023-05-09T01:34:51.728Z,67.30
2023-05-09T01:37:22.274Z,66.91
2023-05-09T01:39:53.222Z,68.40
2023-05-09T01:42:22.700Z,67.90
2023-05-09T01:44:51.171Z,68.83
2023-05-09T01:47:19.744Z,69.66
2023-05-09T01:49:48.014Z,69.09
2023-05-09T01:52:18.515Z,69.66
2023-05-09T01:54:46.209Z,68.56
2023-05-09T01:57:13.692Z,67.88
2023-05-09T01:59:42.962Z,68.17
2023-05-09T02:02:10.348Z,67.05
2023-05-09T02:04:38.731Z,67.46
2023-05-09T02:07:07.032Z,66.98
2023-05-09T02:09:33.946Z,67.36
2023-05-09T02:12:00.599Z,69.22
2023-05-09T02:14:27.466Z,69.51
2023-05-09T02:16:57.651Z,70.10
2023-05-09T02:19:25.973Z,68.69
2023-05-09T02:21:53.837Z,69.17
2023-05-09T02:24:20.467Z,70.58
2023-05-09T02:26:47.495Z,69.41
2023-05-09T02:29:19.130Z,69.67
2023-05-09T02:31:48.631Z,70.20
2023-05-09T02:34:16.943Z,69.69
2023-05-09T02:36:44.223Z,70.46
2023-05-09T02:39:11.482Z,70.23
2023-05-09T02:41:38.192Z,69.66
2023-05-09T02:44:05.205Z,68.91
2023-05-09T02:46:32.131Z,68.69
2023-05-09T02:48:59.742Z,68.47
2023-05-09T02:51:28.373Z,69.22
2023-05-09T02:53:55.056Z,68.89
2023-05-09T02:56:22.306Z,69.32
2023-05-09T02:58:51.456Z,69.29
2023-05-09T03:01:18.684Z,69.17
2023-05-09T03:03:46.327Z,69.04
2023-05-09T03:06:14.268Z,69.28
2023-05-09T03:08:41.165Z,69.21
2023-05-09T03:11:09.120Z,69.29
2023-05-09T03:13:36.319Z,69.37
2023-05-09T03:16:03.074Z,69.67
2023-05-09T03:18:32.603Z,70.30
2023-05-09T03:21:00.325Z,70.44
2023-05-09T03:23:27.231Z,70.23
2023-05-09T03:25:53.847Z,70.20
2023-05-09T03:28:20.718Z,70.29
2023-05-09T03:30:47.801Z,70.37
2023-05-09T03:33:16.468Z,70.10
2023-05-09T03:35:43.130Z,69.91
2023-05-09T03:38:10.014Z,69.93
2023-05-09T03:40:36.650Z,70.22
2023-05-09T03:43:07.470Z,70.15
2023-05-09T03:45:36.056Z,70.39
2023-05-09T03:48:05.454Z,70.08
2023-05-09T03:50:32.215Z,70.22
2023-05-09T03:52:59.230Z,70.45
2023-05-09T03:55:26.308Z,70.30
2023-05-09T03:57:53.893Z,70.00
2023-05-09T04:00:21.809Z,70.02
2023-05-09T04:02:59.637Z,69.72
2023-05-09T04:05:35.393Z,69.74
2023-05-09T04:08:04.678Z,69.79
2023-05-09T04:10:32.768Z,69.99
2023-05-09T04:13:00.409Z,70.13
2023-05-09T04:15:27.198Z,70.29
2023-05-09T04:17:55.438Z,70.29
2023-05-09T04:20:22.458Z,70.65
2023-05-09T04:22:52.183Z,70.63
2023-05-09T04:25:20.202Z,70.74
2023-05-09T04:27:47.558Z,70.89
2023-05-09T04:30:15.670Z,70.85
2023-05-09T04:32:46.233Z,70.68
2023-05-09T04:35:14.132Z,70.38
2023-05-09T04:37:44.795Z,70.08
2023-05-09T04:40:12.186Z,69.72
2023-05-09T04:42:45.187Z,69.55
2023-05-09T04:45:12.192Z,69.60
2023-05-09T04:47:43.509Z,68.93
2023-05-09T04:50:10.670Z,69.39
2023-05-09T04:52:43.008Z,69.48
2023-05-09T04:55:09.857Z,69.51
2023-05-09T04:57:41.129Z,69.65
2023-05-09T05:00:08.519Z,69.60
2023-05-09T05:02:36.118Z,69.72
2023-05-09T05:05:11.714Z,70.01
2023-05-09T05:07:41.331Z,70.07
2023-05-09T05:10:10.000Z,70.17
2023-05-09T05:12:38.634Z,69.63
2023-05-09T05:15:08.857Z,70.21
2023-05-09T05:17:35.498Z,69.99
2023-05-09T05:20:06.676Z,69.88
2023-05-09T05:22:34.663Z,69.73
2023-05-09T05:25:01.258Z,69.72
2023-05-09T05:27:28.000Z,69.43
2023-05-09T05:29:54.732Z,69.07
2023-05-09T05:32:21.514Z,69.35
2023-05-09T05:34:48.117Z,69.05
2023-05-09T05:37:15.828Z,68.88
2023-05-09T05:39:42.594Z,68.77
2023-05-09T05:42:09.385Z,68.94
2023-05-09T05:44:36.761Z,68.84
2023-05-09T05:47:06.847Z,68.84
2023-05-09T05:49:33.985Z,68.79
2023-05-09T05:52:01.169Z,68.76
2023-05-09T05:54:27.921Z,68.20
2023-05-09T05:56:54.690Z,68.32
2023-05-09T05:59:21.774Z,67.85
2023-05-09T06:01:48.737Z,67.43
2023-05-09T06:04:15.677Z,67.65
2023-05-09T06:06:42.429Z,67.25
2023-05-09T06:09:09.169Z,67.23
2023-05-09T06:11:36.070Z,66.72
2023-05-09T06:14:03.295Z,66.23
2023-05-09T06:16:30.453Z,65.87
2023-05-09T06:18:57.407Z,65.31
2023-05-09T06:21:24.402Z,64.93
2023-05-09T06:24:06.452Z,64.84
2023-05-09T06:26:37.009Z,64.73
2023-05-09T06:29:04.402Z,64.33
2023-05-09T06:31:31.097Z,64.17
2023-05-09T06:33:57.830Z,64.16
2023-05-09T06:36:24.578Z,64.36
2023-05-09T06:38:51.278Z,64.11
2023-05-09T06:41:17.904Z,64.21
2023-05-09T06:43:44.685Z,64.34
2023-05-09T06:46:11.386Z,64.50
2023-05-09T06:48:38.123Z,65.12
2023-05-09T06:51:04.980Z,64.70
2023-05-09T06:53:31.672Z,64.87
2023-05-09T06:55:58.479Z,64.37
2023-05-09T06:58:25.101Z,64.87
2023-05-09T07:00:51.791Z,64.55
2023-05-09T07:03:18.483Z,64.20
2023-05-09T07:05:45.242Z,64.85
2023-05-09T07:08:11.938Z,65.32
2023-05-09T07:10:38.848Z,64.95
2023-05-09T07:13:06.375Z,65.24
2023-05-09T07:15:41.460Z,65.76
2023-05-09T07:18:09.657Z,65.15
2023-05-09T07:20:36.526Z,65.59
2023-05-09T07:23:04.176Z,65.09
2023-05-09T07:25:31.249Z,64.93
2023-05-09T07:27:58.033Z,65.26
2023-05-09T07:30:25.229Z,65.32
2023-05-09T07:32:52.365Z,65.28
2023-05-09T07:35:19.790Z,65.40
2023-05-09T07:37:46.570Z,65.11
2023-05-09T07:40:13.787Z,65.33
2023-05-09T07:42:40.700Z,65.38
2023-05-09T07:45:07.864Z,65.53
2023-05-09T07:47:34.836Z,66.08
2023-05-09T07:50:01.638Z,65.46
2023-05-09T07:52:28.378Z,64.76
2023-05-09T07:54:55.368Z,65.12
2023-05-09T07:57:22.815Z,64.64
2023-05-09T07:59:49.371Z,64.44
2023-05-09T08:02:16.106Z,64.60
2023-05-09T08:04:42.920Z,64.51
2023-05-09T08:07:09.643Z,64.37
2023-05-09T08:09:36.229Z,64.48
2023-05-09T08:12:02.973Z,63.87
2023-05-09T08:14:29.853Z,63.46
2023-05-09T08:16:56.469Z,63.07
2023-05-09T08:19:26.051Z,62.75
2023-05-09T08:21:53.334Z,62.65
2023-05-09T08:24:20.393Z,62.24
2023-05-09T08:26:47.243Z,61.08
2023-05-09T08:29:13.941Z,60.86
2023-05-09T08:31:41.046Z,60.38
2023-05-09T08:34:07.737Z,59.07
2023-05-09T08:36:34.453Z,58.73
2023-05-09T08:39:02.318Z,58.24
2023-05-09T08:41:33.276Z,57.88
2023-05-09T08:43:59.995Z,57.98
2023-05-09T08:46:36.470Z,58.20
2023-05-09T08:49:06.811Z,57.16
2023-05-09T08:51:35.257Z,57.66
2023-05-09T08:54:02.858Z,56.64
2023-05-09T08:56:31.351Z,56.13
2023-05-09T08:58:58.947Z,54.39
2023-05-09T09:01:26.886Z,54.21
2023-05-09T09:03:54.123Z,54.29
2023-05-09T09:06:23.485Z,54.66
2023-05-09T09:08:50.909Z,53.44
2023-05-09T09:11:18.705Z,53.81
2023-05-09T09:13:49.790Z,53.04
2023-05-09T09:16:20.858Z,52.79
2023-05-09T09:18:48.412Z,53.12
2023-05-09T09:21:19.350Z,54.22
2023-05-09T09:23:47.545Z,53.80
2023-05-09T09:26:14.926Z,53.52
2023-05-09T09:28:42.626Z,53.02
2023-05-09T09:31:31.767Z,53.25
2023-05-09T09:34:02.493Z,53.64
2023-05-09T09:36:33.078Z,55.11
2023-05-09T09:39:01.166Z,55.97
2023-05-09T09:41:46.005Z,56.13
2023-05-09T09:44:12.675Z,56.10
2023-05-09T09:46:46.692Z,56.14
2023-05-09T09:49:14.520Z,55.47
2023-05-09T09:51:41.987Z,55.44
2023-05-09T09:54:09.218Z,55.66
2023-05-09T09:56:55.004Z,54.98
2023-05-09T09:59:26.528Z,55.24
2023-05-09T10:02:07.025Z,55.40
2023-05-09T10:04:36.707Z,54.69
2023-05-09T10:07:06.198Z,54.19
2023-05-09T10:09:34.693Z,53.77
2023-05-09T10:12:06.377Z,53.29
2023-05-09T10:14:35.590Z,52.03
2023-05-09T10:17:05.433Z,52.96
2023-05-09T10:19:32.935Z,52.34
2023-05-09T10:22:04.483Z,52.41
2023-05-09T10:24:51.327Z,51.79
2023-05-09T10:27:21.642Z,52.40
2023-05-09T10:30:07.172Z,52.71
2023-05-09T10:33:00.225Z,52.44
2023-05-09T10:35:33.027Z,52.55
2023-05-09T10:38:01.778Z,52.43
2023-05-09T10:40:29.073Z,53.02
2023-05-09T10:42:55.593Z,52.62
2023-05-09T10:45:22.854Z,53.57
2023-05-09T10:47:53.233Z,54.18
2023-05-09T10:50:21.475Z,55.32
2023-05-09T10:53:29.824Z,55.34
2023-05-09T10:56:01.441Z,55.71
2023-05-09T10:58:30.091Z,55.64
2023-05-09T11:00:58.908Z,56.41
2023-05-09T11:03:26.942Z,56.83
2023-05-09T11:05:56.230Z,57.09
2023-05-09T11:08:29.732Z,57.15
2023-05-09T11:11:06.577Z,56.71
2023-05-09T11:13:38.447Z,57.04
2023-05-09T11:16:08.421Z,57.45
2023-05-09T11:18:35.384Z,57.62
2023-05-09T11:21:09.531Z,58.37
2023-05-09T11:23:38.766Z,58.04
2023-05-09T11:26:07.202Z,57.16
2023-05-09T11:28:36.893Z,56.82
2023-05-09T11:31:18.466Z,55.66
2023-05-09T11:33:49.132Z,55.13
2023-05-09T11:36:20.253Z,54.61
2023-05-09T11:39:01.482Z,53.08
2023-05-09T11:41:28.805Z,52.02
2023-05-09T11:43:56.884Z,51.09
2023-05-09T11:46:23.817Z,49.51
2023-05-09T11:48:50.512Z,48.47
2023-05-09T11:51:18.602Z,47.46
2023-05-09T11:53:49.694Z,47.78
2023-05-09T11:56:17.454Z,47.22
2023-05-09T11:58:44.073Z,46.73
2023-05-09T12:01:12.604Z,46.00
2023-05-09T12:03:45.999Z,45.57
2023-05-09T12:06:18.258Z,45.25
2023-05-09T12:08:45.995Z,45.09
2023-05-09T12:11:14.055Z,46.52
2023-05-09T12:13:50.762Z,46.66
2023-05-09T12:16:18.629Z,46.46
2023-05-09T12:18:52.943Z,46.28
2023-05-09T12:21:20.704Z,47.37
2023-05-09T12:23:50.575Z,46.97
2023-05-09T12:26:18.570Z,47.67
2023-05-09T12:28:45.642Z,48.50
2023-05-09T12:31:12.949Z,48.46
2023-05-09T12:33:39.908Z,48.13
2023-05-09T12:36:12.285Z,48.00
2023-05-09T12:38:39.955Z,48.52
2023-05-09T12:41:15.516Z,48.83
2023-05-09T12:43:50.914Z,48.60
2023-05-09T12:46:19.025Z,49.76
2023-05-09T12:48:47.373Z,48.84
2023-05-09T12:51:19.770Z,50.40
2023-05-09T12:53:46.538Z,51.60
2023-05-09T12:56:20.847Z,50.61
2023-05-09T12:58:51.676Z,51.16
2023-05-09T13:01:22.578Z,51.55
2023-05-09T13:03:53.639Z,51.30
2023-05-09T13:06:21.085Z,50.87
2023-05-09T13:09:01.760Z,51.01
2023-05-09T13:11:29.481Z,50.27
2023-05-09T13:13:56.275Z,50.81
2023-05-09T13:16:23.465Z,51.71
2023-05-09T13:18:50.063Z,51.26
2023-05-09T13:21:16.831Z,52.27
2023-05-09T13:23:45.382Z,52.01
2023-05-09T13:26:15.046Z,51.87
2023-05-09T13:28:41.724Z,52.37
2023-05-09T13:31:08.461Z,52.70
2023-05-09T13:33:35.295Z,52.03
2023-05-09T13:36:02.094Z,52.11
2023-05-09T13:38:31.040Z,52.91
2023-05-09T13:40:58.306Z,52.33
2023-05-09T13:43:25.005Z,52.86
2023-05-09T13:45:51.610Z,51.67
2023-05-09T13:48:18.415Z,52.27
2023-05-09T13:50:46.624Z,51.08
2023-05-09T13:53:13.372Z,52.32
2023-05-09T13:55:40.025Z,52.43
2023-05-09T13:58:06.930Z,52.53
2023-05-09T14:00:34.152Z,52.58
2023-05-09T14:03:02.027Z,52.71
2023-05-09T14:05:30.858Z,52.71
2023-05-09T14:07:57.639Z,53.03
2023-05-09T14:10:26.716Z,53.23
2023-05-09T14:12:54.131Z,54.16
2023-05-09T14:15:21.218Z,53.71
2023-05-09T14:17:47.967Z,53.48
2023-05-09T14:20:16.098Z,53.51
2023-05-09T14:22:43.587Z,53.61
2023-05-09T14:25:10.514Z,54.22
2023-05-09T14:27:40.264Z,54.54
2023-05-09T14:30:08.657Z,54.90
2023-05-09T14:32:35.641Z,54.29
2023-05-09T14:35:02.806Z,55.07
2023-05-09T14:37:29.675Z,55.14
2023-05-09T14:39:56.423Z,55.56
2023-05-09T14:42:23.059Z,55.33
2023-05-09T14:44:50.047Z,56.41
2023-05-09T14:47:16.912Z,56.24
2023-05-09T14:49:44.392Z,55.33
2023-05-09T14:52:11.104Z,55.93
2023-05-09T14:54:37.871Z,56.58
2023-05-09T14:57:08.180Z,56.86
2023-05-09T14:59:36.974Z,57.46
2023-05-09T15:02:03.949Z,57.84
2023-05-09T15:04:31.525Z,58.22
2023-05-09T15:06:59.276Z,58.42
2023-05-09T15:09:26.541Z,57.91
2023-05-09T15:11:53.450Z,58.63
2023-05-09T15:14:20.270Z,59.34
2023-05-09T15:16:47.171Z,59.21
2023-05-09T15:19:14.653Z,60.01
2023-05-09T15:21:41.519Z,59.90
2023-05-09T15:24:08.745Z,60.50
2023-05-09T15:26:35.602Z,61.02
2023-05-09T15:29:02.554Z,60.76
2023-05-09T15:31:32.729Z,61.75
2023-05-09T15:34:01.239Z,61.93
2023-05-09T15:36:32.197Z,64.60
2023-05-09T15:38:59.159Z,65.01
2023-05-09T15:41:26.007Z,67.30
2023-05-09T15:43:53.009Z,66.72
2023-05-09T15:46:19.790Z,67.68
2023-05-09T15:48:46.589Z,66.67
2023-05-09T15:51:13.780Z,68.52
2023-05-09T15:53:40.886Z,68.97
2023-05-09T15:56:08.253Z,67.55
2023-05-09T15:58:35.139Z,68.77
2023-05-09T16:01:05.552Z,69.87
2023-05-09T16:03:32.681Z,70.19
2023-05-09T16:05:59.676Z,68.98
2023-05-09T16:08:26.556Z,70.02
2023-05-09T16:10:53.305Z,71.38
2023-05-09T16:13:20.046Z,70.39
2023-05-09T16:15:48.018Z,73.91
2023-05-09T16:18:14.830Z,71.86
2023-05-09T16:20:44.596Z,73.88
2023-05-09T16:23:11.590Z,73.51
2023-05-09T16:25:38.320Z,74.03
2023-05-09T16:28:06.798Z,73.69
2023-05-09T16:30:33.441Z,74.36
2023-05-09T16:33:00.129Z,74.50
2023-05-09T16:35:27.089Z,75.17
2023-05-09T16:37:53.647Z,74.44
2023-05-09T16:40:20.486Z,75.39
2023-05-09T16:42:47.396Z,76.52
2023-05-09T16:45:13.957Z,74.88
2023-05-09T16:47:40.645Z,77.01
2023-05-09T16:50:07.551Z,76.55
2023-05-09T16:52:34.575Z,76.40
2023-05-09T16:55:01.447Z,76.04
2023-05-09T16:57:28.110Z,77.90
2023-05-09T16:59:55.639Z,76.92
2023-05-09T17:02:22.559Z,76.39
2023-05-09T17:04:49.425Z,77.82
2023-05-09T17:07:16.122Z,78.58
2023-05-09T17:09:43.274Z,78.78
2023-05-09T17:12:16.331Z,79.93
2023-05-09T17:14:43.013Z,80.22
2023-05-09T17:17:09.774Z,79.92
2023-05-09T17:19:36.700Z,79.52
2023-05-09T17:22:05.754Z,79.47
2023-05-09T17:24:32.492Z,80.49
2023-05-09T17:26:59.696Z,80.78
2023-05-09T17:29:29.146Z,79.55
2023-05-09T17:32:02.497Z,80.29
2023-05-09T17:34:29.345Z,79.92
2023-05-09T17:36:56.502Z,81.50
2023-05-09T17:39:23.345Z,81.91
2023-05-09T17:41:50.118Z,82.27
2023-05-09T17:44:16.794Z,82.48
2023-05-09T17:46:44.085Z,81.60
2023-05-09T17:49:13.851Z,81.84
2023-05-09T17:51:40.834Z,82.05
2023-05-09T17:54:07.462Z,82.89
2023-05-09T17:56:34.221Z,82.46
2023-05-09T17:59:01.597Z,80.97
2023-05-09T18:01:28.691Z,81.27
2023-05-09T18:03:55.472Z,80.82
2023-05-09T18:06:22.159Z,80.81
2023-05-09T18:08:49.114Z,81.60
2023-05-09T18:11:16.293Z,82.40
2023-05-09T18:13:43.313Z,82.81
2023-05-09T18:16:09.981Z,82.98
2023-05-09T18:18:36.745Z,83.35
2023-05-09T18:21:05.335Z,83.43
2023-05-09T18:23:31.958Z,82.93
2023-05-09T18:25:58.829Z,83.05
2023-05-09T18:28:25.638Z,83.53
2023-05-09T18:30:57.208Z,83.59
2023-05-09T18:33:25.847Z,83.76
2023-05-09T18:35:53.481Z,84.88
2023-05-09T18:38:20.784Z,84.58
2023-05-09T18:40:48.251Z,84.86
2023-05-09T18:43:16.592Z,85.10
2023-05-09T18:45:44.938Z,85.03
2023-05-09T18:48:11.535Z,84.82
2023-05-09T18:50:38.302Z,84.35
2023-05-09T18:53:05.184Z,84.86
2023-05-09T18:55:31.926Z,84.91
2023-05-09T18:57:59.065Z,85.51
2023-05-09T19:00:25.820Z,85.63
2023-05-09T19:02:52.537Z,86.02
2023-05-09T19:05:20.371Z,85.90
2023-05-09T19:07:47.014Z,85.25
2023-05-09T19:10:14.343Z,86.42
2023-05-09T19:12:41.716Z,86.38
2023-05-09T19:15:09.266Z,85.58
2023-05-09T19:17:36.161Z,85.94
2023-05-09T19:20:03.818Z,86.51
2023-05-09T19:22:30.385Z,86.61
2023-05-09T19:25:00.206Z,85.67
2023-05-09T19:27:27.103Z,85.83
2023-05-09T19:29:54.172Z,86.09
2023-05-09T19:32:20.981Z,85.53
2023-05-09T19:34:48.089Z,85.81
2023-05-09T19:37:14.756Z,86.16
2023-05-09T19:39:41.655Z,86.38
2023-05-09T19:42:08.467Z,86.06
2023-05-09T19:44:35.115Z,86.23
2023-05-09T19:47:05.146Z,86.49
2023-05-09T19:49:32.960Z,86.58
2023-05-09T19:51:59.799Z,86.56
2023-05-09T19:54:27.184Z,87.27
2023-05-09T19:56:54.039Z,86.75
2023-05-09T19:59:21.131Z,86.78
2023-05-09T20:01:47.882Z,87.25
2023-05-09T20:04:14.613Z,86.66
2023-05-09T20:06:41.415Z,87.17
2023-05-09T20:09:08.064Z,87.51
2023-05-09T20:11:34.917Z,86.87
2023-05-09T20:14:01.909Z,87.01
2023-05-09T20:16:32.884Z,87.45
2023-05-09T20:19:06.596Z,87.36
2023-05-09T20:21:33.866Z,87.62
2023-05-09T20:24:02.272Z,86.81
2023-05-09T20:26:29.709Z,86.94
2023-05-09T20:29:01.464Z,86.73
2023-05-09T20:31:29.222Z,86.38
2023-05-09T20:33:57.735Z,86.56
2023-05-09T20:36:25.800Z,86.81
2023-05-09T20:38:52.689Z,86.93
2023-05-09T20:41:19.387Z,86.73
2023-05-09T20:43:45.998Z,87.16
2023-05-09T20:46:14.021Z,86.74
2023-05-09T20:48:40.884Z,87.19
2023-05-09T20:51:07.716Z,87.40
2023-05-09T20:53:34.972Z,87.46
2023-05-09T20:56:02.149Z,87.91
2023-05-09T20:58:32.569Z,88.07
2023-05-09T21:00:59.336Z,88.17
2023-05-09T21:03:26.145Z,88.51
2023-05-09T21:05:54.094Z,88.02
2023-05-09T21:08:20.713Z,87.19
2023-05-09T21:10:47.421Z,88.02
2023-05-09T21:13:14.138Z,88.42
2023-05-09T21:15:40.973Z,88.13
2023-05-09T21:18:07.860Z,88.41
2023-05-09T21:20:34.518Z,88.78
2023-05-09T21:23:01.257Z,89.43
2023-05-09T21:25:28.019Z,89.40
2023-05-09T21:27:54.632Z,89.47
2023-05-09T21:30:21.151Z,89.19
2023-05-09T21:32:50.441Z,88.46
2023-05-09T21:35:17.347Z,87.90
2023-05-09T21:37:45.522Z,87.99
2023-05-09T21:40:12.728Z,88.30
2023-05-09T21:42:41.064Z,88.17
2023-05-09T21:45:08.305Z,87.90
2023-05-09T21:47:35.228Z,88.20
2023-05-09T21:50:04.080Z,88.55
2023-05-09T21:52:30.857Z,88.02
2023-05-09T21:54:58.077Z,88.31
2023-05-09T21:57:26.691Z,88.89
2023-05-09T21:59:54.185Z,88.85
2023-05-09T22:02:20.976Z,89.21
2023-05-09T22:04:47.604Z,89.33
2023-05-09T22:07:14.218Z,89.02
2023-05-09T22:09:40.810Z,88.95
2023-05-09T22:12:07.575Z,88.25
2023-05-09T22:14:41.949Z,88.18
2023-05-09T22:17:15.530Z,87.71
2023-05-09T22:19:46.983Z,87.56
2023-05-09T22:22:13.701Z,88.02
2023-05-09T22:24:43.669Z,88.18
2023-05-09T22:27:10.996Z,87.60
2023-05-09T22:29:37.983Z,87.75
2023-05-09T22:32:07.525Z,87.67
2023-05-09T22:34:35.908Z,87.78
2023-05-09T22:37:02.736Z,87.14
2023-05-09T22:39:29.859Z,87.49
2023-05-09T22:41:56.704Z,87.55
2023-05-09T22:44:23.878Z,87.51
2023-05-09T22:46:50.662Z,87.33
2023-05-09T22:49:17.487Z,87.45
2023-05-09T22:51:44.163Z,87.18
2023-05-09T22:54:11.080Z,87.26
2023-05-09T22:56:37.829Z,86.83
2023-05-09T22:59:04.704Z,86.90
2023-05-09T23:01:32.278Z,87.45
2023-05-09T23:03:58.823Z,86.96
2023-05-09T23:06:25.693Z,86.48
2023-05-09T23:08:52.286Z,86.83
2023-05-09T23:11:19.275Z,87.16
2023-05-09T23:13:45.911Z,87.12
2023-05-09T23:16:12.818Z,87.11
2023-05-09T23:18:39.643Z,87.25
2023-05-09T23:21:06.311Z,87.70
2023-05-09T23:23:33.161Z,87.50
2023-05-09T23:25:59.792Z,87.74
2023-05-09T23:28:26.894Z,88.76
2023-05-09T23:30:54.251Z,88.36
2023-05-09T23:33:21.406Z,88.35
2023-05-09T23:35:48.324Z,88.92
2023-05-09T23:38:15.160Z,89.63
2023-05-09T23:40:46.133Z,89.23
2023-05-09T23:43:13.560Z,89.83
2023-05-09T23:45:40.456Z,90.16
2023-05-09T23:48:07.565Z,90.30
2023-05-09T23:50:34.313Z,90.82
2023-05-09T23:53:01.206Z,90.43
2023-05-09T23:55:27.797Z,90.63
2023-05-09T23:57:54.834Z,90.75
